Sydenham, Canada
Current Conditions -  °F | °C
As of 9:00 PM on Monday 24 Nov 2014 (Local Time) from CYVV Reporting Station
Rain Showers Rain Showers  
Wind Chill: 28°   Ceiling: 1800
Heat Index: 39°   Visibility: 10mi
Dew Point: 34°   Wind: 28mph
Humidity: 81%   Direction: 230°SW
Pressure: 29.38"   Gusts: 44mph
Location:  44.57°N, 80.8°W
Report Text: CYVV 250200Z 23024G38KT 10SM -SHRA OVC018 04/01 A2938 RMK SC8 SLP953
Loading
Personal Weather Stations






























Interactive Weather Map New forecast layout! Learn more

10-Day Weather Forecast

Advertisements
Track Severe Weather on mobile